To NAV CANADA Home Page Login to a new session Search on AWWS site Feedback and Comments Disclaimer Vers la page française équivalente Tips FAQ What's new on the site To the Forecasts and Observations / NOTAM section To "File a Flight Plan" website Publications and other links Update of the User's profile FIC Telephone Numbers My Weather Data Folder Route Weather Data Regional Weather Data Local Weather Data To the Forecasts and Observations / NOTAM section
Request Generated 04/30/2017 at 05:00:37 UTC . Weather information available at that time is displayed.

METAR/TAF

HAVRE ST-PIERRE/QC    (show WxCam)

METAR CYGV 300400Z AUTO 33013G18KT 9SM FEW240 04/M01 A2972 RMK
SLP069=
METAR CYGV 300300Z AUTO 30006KT 9SM OVC110 05/M00 A2970 RMK SLP060=
METAR CYGV 300200Z AUTO 27008KT 9SM OVC110 03/02 A2966 RMK SLP047=

TAF CYGV 300138Z 3002/3014 27010KT P6SM BKN100
FM300500 31012KT P6SM FEW040
BECMG 3012/3014 33012G22KT
RMK FCST BASED ON AUTO OBS. NXT FCST BY 300800Z=
Your time UTC time
Weather data provided by Environment Canada and NAV CANADA